Data for 07/11/2017

Time Sea-Level Adjusted Pressure Absolute Pressure Temperature Relative Humidity Dew Point   
(mb) (inHg) (mb) (inHg) (C) (F) (%) (C) (F)
00:05 1017 30.03 847 25.01 14.5 58.2 76 10.4 50.6
00:10 1017 30.03 847 25.01 14.6 58.3 74 10.2 50.3
00:15 1017 30.03 847 25.01 14.8 58.6 72 9.9 49.8
00:20 1017 30.03 847 25.01 14.9 58.8 73 10 50.1
00:25 1017 30.03 847 25.01 14.7 58.4 74 10.1 50.1
00:30 1017 30.03 847 25.01 14.4 58 75 10 50
00:35 1017 30.03 847 25.01 14.4 57.9 74 9.8 49.7
00:40 1017 30.03 847 25.01 14.4 57.9 75 10.1 50.2
00:45 1017 30.03 847 25.01 14.1 57.3 77 10.2 50.3
00:50 1017 30.03 847 25.01 13.6 56.6 79 10.1 50.2
00:55 1017 30.03 847 25.01 13.5 56.2 78 9.8 49.6
01:00 1017 30.03 847 25.01 13.7 56.6 75 9.4 48.9
01:05 1017 30.03 847 25.01 14.1 57.3 74 9.4 49
01:10 1017 30.03 847 25.01 14 57.2 74 9.4 49
01:15 1017 30.03 847 25.01 13.9 56.9 75 9.5 49
01:20 1017 30.03 846 24.98 13.8 56.8 74 9.2 48.6
01:25 1017 30.03 847 25.01 13.7 56.7 73 9.1 48.3
01:30 1017 30.03 847 25.01 13.9 57 73 9.1 48.4
01:35 1017 30.03 847 25.01 13.8 56.9 74 9.3 48.7
01:40 1017 30.03 847 25.01 13.7 56.6 74 9.2 48.6
01:45 1017 30.03 847 25.01 13.6 56.5 75 9.4 48.9
01:50 1017 30.03 847 25.01 13.5 56.3 75 9.3 48.7
01:55 1017 30.03 847 25.01 13.5 56.3 75 9.2 48.6
02:00 1018 30.06 847 25.01 13.3 55.9 76 9.1 48.5
02:05 1017 30.03 847 25.01 13.2 55.8 75 8.9 48.1
02:10 1018 30.06 847 25.01 13.2 55.8 76 9 48.2
02:15 1018 30.06 847 25.01 13.2 55.7 76 9.1 48.3
02:20 1018 30.06 847 25.01 13 55.3 77 9 48.2
02:25 1017 30.03 847 25.01 12.9 55.2 77 8.9 48.1
02:30 1017 30.03 847 25.01 12.8 55 77 8.9 47.9
02:35 1017 30.03 847 25.01 12.8 55 76 8.7 47.7
02:40 1017 30.03 847 25.01 12.9 55.2 75 8.6 47.5
02:45 1017 30.03 847 25.01 12.9 55.2 75 8.6 47.5
02:50 1018 30.06 847 25.01 12.8 55 75 8.5 47.3
02:55 1018 30.06 847 25.01 12.9 55.1 74 8.4 47.2
03:00 1018 30.06 847 25.01 13.3 55.9 71 8.2 46.8
03:05 1018 30.06 847 25.01 13.6 56.4 71 8.5 47.3
03:10 1018 30.06 847 25.01 13.4 56.2 72 8.6 47.5
03:15 1018 30.06 847 25.01 13.1 55.6 75 8.8 47.8
03:20 1018 30.06 847 25.01 12.8 55 75 8.4 47.2
03:25 1017 30.03 847 25.01 13.1 55.7 73 8.4 47.1
03:30 1017 30.03 847 25.01 13.4 56 72 8.5 47.2
03:35 1017 30.03 847 25.01 13.4 56.1 72 8.6 47.4
03:40 1017 30.03 847 25.01 13.2 55.8 74 8.7 47.7
03:45 1017 30.03 847 25.01 13 55.3 75 8.7 47.7
03:50 1017 30.03 847 25.01 12.7 54.9 76 8.7 47.7
03:55 1017 30.03 847 25.01 12.6 54.6 77 8.6 47.5
04:00 1017 30.03 847 25.01 12.5 54.5 76 8.4 47
04:05 1017 30.03 847 25.01 12.5 54.5 76 8.5 47.3
04:10 1017 30.03 847 25.01 12.2 54 78 8.5 47.3
04:15 1017 30.03 847 25.01 12.2 54 77 8.2 46.8
04:20 1017 30.03 847 25.01 12.3 54.1 76 8.3 46.9
04:25 1017 30.03 847 25.01 12.3 54.2 76 8.3 47
04:30 1018 30.06 847 25.01 12.2 54 77 8.4 47
04:35 1018 30.06 847 25.01 12 53.7 78 8.3 47
04:40 1018 30.06 847 25.01 11.9 53.4 79 8.3 47
04:45 1018 30.06 847 25.01 11.9 53.3 79 8.3 47
04:50 1018 30.06 847 25.01 12 53.5 77 8.1 46.5
04:55 1018 30.06 847 25.01 12.3 54.1 77 8.3 47
05:00 1018 30.06 847 25.01 12 53.6 78 8.3 47
05:05 1018 30.06 847 25.01 11.9 53.4 78 8.1 46.6
05:10 1018 30.06 847 25.01 11.9 53.5 78 8.1 46.7
05:15 1018 30.06 847 25.01 11.8 53.2 79 8.2 46.8
05:20 1018 30.06 847 25.01 11.7 53 78 8.1 46.5
05:25 1018 30.06 847 25.01 11.8 53.3 77 8 46.3
05:30 1018 30.06 847 25.01 12.2 54 74 7.7 45.9
05:35 1018 30.06 847 25.01 12.9 55.2 72 8.1 46.5
05:40 1018 30.06 847 25.01 12.5 54.6 75 8.2 46.8
05:45 1018 30.06 847 25.01 12.3 54.1 74 7.9 46.2
05:50 1018 30.06 847 25.01 12.5 54.4 74 8 46.5
05:55 1018 30.06 847 25.01 12.3 54.1 76 8.2 46.7
06:00 1018 30.06 847 25.01 12.1 53.8 76 8.1 46.6
06:05 1018 30.06 847 25.01 12.1 53.7 76 7.9 46.3
06:10 1018 30.06 847 25.01 12.1 53.7 76 8 46.5
06:15 1018 30.06 847 25.01 12 53.6 76 8 46.3
06:20 1018 30.06 847 25.01 12.1 53.8 76 8 46.5
06:25 1018 30.06 847 25.01 12.3 54.1 74 7.9 46.2
06:30 1018 30.06 848 25.04 12.4 54.4 74 8 46.4
06:35 1018 30.06 848 25.04 12.5 54.4 74 7.9 46.3
06:40 1019 30.09 848 25.04 12.5 54.5 73 7.9 46.3
06:45 1019 30.09 848 25.04 12.8 55.1 72 8 46.4
06:50 1019 30.09 848 25.04 13 55.4 72 8.1 46.6
06:55 1019 30.09 848 25.04 13.3 55.9 71 8.1 46.7
07:00 1019 30.09 848 25.04 13.4 56.2 71 8.3 46.9
07:05 1019 30.09 848 25.04 13.5 56.3 70 8.3 46.9
07:10 1019 30.09 848 25.04 13.4 56.1 71 8.3 47
07:15 1019 30.09 848 25.04 13.6 56.4 71 8.5 47.3
07:20 1019 30.09 848 25.04 13.9 57.1 71 8.7 47.7
07:25 1019 30.09 848 25.04 14.1 57.4 71 8.9 48
07:30 1019 30.09 848 25.04 14.3 57.7 69 8.8 47.8
07:35 1019 30.09 848 25.04 14.4 58 69 8.8 47.8
07:40 1019 30.09 848 25.04 14.6 58.2 69 9 48.1
07:45 1019 30.09 848 25.04 14.8 58.7 68 9.1 48.3
07:50 1019 30.09 848 25.04 15 59.1 69 9.4 48.9
07:55 1019 30.09 848 25.04 15.2 59.3 70 9.7 49.5
08:00 1019 30.09 848 25.04 15.2 59.4 70 9.9 49.7
08:05 1019 30.09 848 25.04 15 59 70 9.7 49.5
08:10 1019 30.09 848 25.04 15.2 59.3 71 10 50
08:15 1019 30.09 848 25.04 15.1 59.3 69 9.6 49.2
08:20 1019 30.09 848 25.04 14.8 58.6 69 9.3 48.7
08:25 1019 30.09 848 25.04 15.2 59.3 68 9.4 49
08:30 1019 30.09 848 25.04 16.4 61.5 64 9.7 49.4
08:35 1019 30.09 848 25.04 17.2 63 61 9.8 49.7
08:40 1019 30.09 848 25.04 17.5 63.5 62 10.1 50.3
08:45 1019 30.09 848 25.04 17.9 64.1 60 10.1 50.2
08:50 1019 30.09 848 25.04 17.8 64 60 10.1 50.1
08:55 1019 30.09 848 25.04 18.4 65 58 10.1 50.3
09:00 1019 30.09 848 25.04 18.2 64.7 58 9.8 49.6
09:05 1019 30.09 848 25.04 18.2 64.8 59 10.1 50.2
09:10 1019 30.09 848 25.04 18 64.4 59 9.9 49.9
09:15 1019 30.09 848 25.04 18.3 64.9 58 10 49.9
09:20 1019 30.09 848 25.04 18.5 65.3 58 10.3 50.5
09:25 1019 30.09 848 25.04 18.9 66.1 56 10.1 50.2
09:30 1019 30.09 848 25.04 20.1 68.2 53 10.4 50.7
09:35 1019 30.09 848 25.04 20.4 68.8 53 10.6 51.1
09:40 1019 30.09 848 25.04 20.9 69.7 50 10.3 50.5
09:45 1019 30.09 848 25.04 20.7 69.3 52 10.5 51
09:50 1019 30.09 848 25.04 20.7 69.3 53 10.8 51.4
09:55 1019 30.09 848 25.04 20.7 69.2 50 10.1 50.3
10:00 1019 30.09 848 25.04 20.9 69.6 53 10.9 51.7
10:05 1019 30.09 848 25.04 20.9 69.6 51 10.5 50.9
10:10 1019 30.09 848 25.04 21.4 70.5 49 10.5 51
10:15 1019 30.09 848 25.04 21.4 70.5 52 11.3 52.3
10:20 1019 30.09 848 25.04 21.1 69.9 52 11 51.8
10:25 1019 30.09 848 25.04 21.5 70.6 51 11 51.8
10:30 1019 30.09 848 25.04 21.6 71 49 10.6 51.1
10:35 1019 30.09 848 25.04 21.9 71.3 47 10.2 50.4
10:40 1019 30.09 848 25.04 21.9 71.4 44 9.4 48.9
10:45 1019 30.09 848 25.04 22.2 72 44 9.6 49.3
10:50 1019 30.09 848 25.04 22.1 71.8 44 9.5 49.1
10:55 1019 30.09 848 25.04 22.3 72.1 43 9.4 48.9
11:00 1019 30.09 848 25.04 22.4 72.3 43 9.3 48.8
11:05 1019 30.09 848 25.04 22.6 72.7 42 9.4 48.9
11:10 1019 30.09 848 25.04 22.8 73.1 41 9.1 48.3
11:15 1019 30.09 848 25.04 22.6 72.7 41 8.7 47.7
11:20 1019 30.09 848 25.04 21.7 71.1 44 9 48.2
11:25 1019 30.09 848 25.04 22.2 72 41 8.6 47.4
11:30 1019 30.09 848 25.04 23.3 73.9 40 9 48.2
11:35 1019 30.09 848 25.04 23.8 74.8 37 8.3 46.9
11:40 1019 30.09 848 25.04 24 75.3 34 7.5 45.6
11:45 1019 30.09 848 25.04 23.3 73.9 40 9.1 48.4
11:50 1019 30.09 848 25.04 22.7 72.8 39 8.2 46.7
11:55 1019 30.09 848 25.04 22.6 72.8 36 7.2 45
12:00 1019 30.09 848 25.04 22.8 73.1 39 8.4 47.2
12:05 1019 30.09 848 25.04 23.3 73.9 38 8.3 47
12:10 1019 30.09 848 25.04 22.9 73.3 39 8.6 47.4
12:15 1019 30.09 848 25.04 23.7 74.6 38 8.7 47.7
12:20 1019 30.09 848 25.04 23.1 73.7 39 8.7 47.7
12:25 1019 30.09 848 25.04 23.6 74.4 36 7.8 46
12:30 1019 30.09 848 25.04 24.2 75.6 35 7.9 46.3
12:35 1019 30.09 848 25.04 24.8 76.7 34 8.1 46.5
12:40 1019 30.09 848 25.04 24.5 76.1 34 7.7 45.8
12:45 1019 30.09 848 25.04 24.6 76.2 32 7.1 44.9
12:50 1019 30.09 848 25.04 24.7 76.4 33 7.5 45.6
12:55 1019 30.09 848 25.04 24.5 76.1 34 7.8 46.1
13:00 1019 30.09 848 25.04 24.8 76.6 33 7.7 45.8
13:05 1019 30.09 848 25.04 25.1 77.2 32 7.3 45.2
13:10 1019 30.09 848 25.04 25.1 77.1 32 7.6 45.6
13:15 1019 30.09 848 25.04 24.6 76.2 34 7.8 46
13:20 1018 30.06 848 25.04 24.7 76.5 34 7.9 46.2
13:25 1018 30.06 848 25.04 25.1 77.2 32 7.3 45.2
13:30 1018 30.06 848 25.04 25.1 77.2 33 7.9 46.1
13:35 1018 30.06 847 25.01 25 76.9 32 7.3 45.2
13:40 1018 30.06 847 25.01 25.7 78.2 31 7.6 45.6
13:45 1018 30.06 847 25.01 25.9 78.5 31 7.6 45.7
13:50 1018 30.06 847 25.01 26.2 79.2 30 7.5 45.4
13:55 1018 30.06 847 25.01 26.4 79.5 30 7.8 46.1
14:00 1018 30.06 847 25.01 26.3 79.3 30 7.5 45.5
14:05 1018 30.06 847 25.01 26.3 79.4 30 7.5 45.6
14:10 1018 30.06 847 25.01 26.2 79.1 30 7.4 45.3
14:15 1018 30.06 847 25.01 25.9 78.5 31 7.8 46.1
14:20 1018 30.06 847 25.01 25.4 77.7 29 6.5 43.8
14:25 1018 30.06 847 25.01 25.9 78.6 31 7.7 45.8
14:30 1018 30.06 847 25.01 25.7 78.3 30 7.1 44.8
14:35 1018 30.06 847 25.01 26.2 79.2 30 7.6 45.8
14:40 1018 30.06 847 25.01 26.1 79.1 30 7.5 45.6
14:45 1018 30.06 847 25.01 25.8 78.4 32 7.9 46.3
14:50 1018 30.06 847 25.01 25.8 78.4 30 7.2 44.9
14:55 1018 30.06 847 25.01 25.7 78.2 31 7.7 45.9
15:00 1018 30.06 847 25.01 26 78.8 30 7.3 45.1
15:05 1018 30.06 847 25.01 25.8 78.5 29 6.8 44.2
15:10 1018 30.06 847 25.01 26.2 79.1 29 6.9 44.4
15:15 1018 30.06 847 25.01 26.1 79 29 6.8 44.3
15:20 1018 30.06 847 25.01 26.8 80.2 29 7.5 45.5
15:25 1018 30.06 847 25.01 26.6 79.8 28 6.9 44.5
15:30 1018 30.06 847 25.01 26.4 79.5 29 7.2 44.9
15:35 1018 30.06 847 25.01 26.2 79.2 29 7 44.6
15:40 1018 30.06 847 25.01 25.4 77.8 30 7 44.5
15:45 1018 30.06 847 25.01 24.7 76.4 33 7.5 45.6
15:50 1018 30.06 847 25.01 24.4 75.9 32 6.9 44.5
15:55 1018 30.06 847 25.01 24.6 76.2 32 7.1 44.7
16:00 1018 30.06 847 25.01 25.7 78.2 30 7.3 45.1
16:05 1018 30.06 847 25.01 26 78.8 29 7 44.6
16:10 1018 30.06 847 25.01 25.4 77.7 32 7.6 45.8
16:15 1018 30.06 847 25.01 25 77 32 7.6 45.6
16:20 1018 30.06 847 25.01 25 77 31 7 44.6
16:25 1018 30.06 848 25.04 24.2 75.5 34 7.3 45.2
16:30 1018 30.06 848 25.04 24.4 76 31 6.6 43.9
16:35 1018 30.06 848 25.04 25.1 77.1 31 7 44.6
16:40 1018 30.06 848 25.04 25 77 30 6.4 43.6
16:45 1018 30.06 848 25.04 25.2 77.4 28 5.7 42.3
16:50 1018 30.06 847 25.01 25.4 77.6 28 6 42.8
16:55 1018 30.06 847 25.01 25.4 77.8 28 5.6 42.1
17:00 1018 30.06 847 25.01 25.8 78.4 28 6.3 43.3
17:05 1018 30.06 847 25.01 25.3 77.5 29 6.4 43.5
17:10 1018 30.06 847 25.01 25.3 77.5 29 6.4 43.6
17:15 1018 30.06 847 25.01 25.6 78 29 6.6 44
17:20 1018 30.06 847 25.01 25.7 78.2 28 6.3 43.3
17:25 1018 30.06 847 25.01 25.5 77.9 29 6.6 43.9
17:30 1018 30.06 847 25.01 25.6 78 29 6.3 43.3
17:35 1018 30.06 847 25.01 25.3 77.5 29 6.4 43.5
17:40 1018 30.06 847 25.01 25.5 77.9 29 6.2 43.2
17:45 1018 30.06 847 25.01 25.5 77.8 28 6.1 43
17:50 1018 30.06 847 25.01 25.6 78 28 6.2 43.2
17:55 1018 30.06 847 25.01 24.6 76.2 30 6.1 43
18:00 1018 30.06 847 25.01 24.9 76.8 29 5.7 42.3
18:05 1018 30.06 847 25.01 25.3 77.6 27 5.3 41.6
18:10 1018 30.06 847 25.01 25.1 77.1 28 5.7 42.2
18:15 1018 30.06 847 25.01 25.6 78.1 28 5.9 42.6
18:20 1018 30.06 847 25.01 25.7 78.2 28 5.8 42.5
18:25 1018 30.06 847 25.01 25.6 78.1 27 5.8 42.4
18:30 1018 30.06 847 25.01 25.7 78.2 28 6 42.8
18:35 1018 30.06 847 25.01 25.4 77.7 28 5.9 42.6
18:40 1018 30.06 847 25.01 24.8 76.7 29 5.6 42.1
18:45 1018 30.06 847 25.01 24.7 76.5 29 5.7 42.3
18:50 1018 30.06 847 25.01 24.9 76.8 29 5.7 42.3
18:55 1018 30.06 847 25.01 25.2 77.3 27 5.2 41.4
19:00 1018 30.06 847 25.01 25.4 77.8 27 5.3 41.6
19:05 1018 30.06 847 25.01 25.3 77.5 27 5.2 41.4
19:10 1018 30.06 847 25.01 25.1 77.2 27 5.3 41.5
19:15 1018 30.06 847 25.01 25.3 77.5 27 5.1 41.2
19:20 1018 30.06 847 25.01 25.3 77.5 26 4.7 40.4
19:25 1018 30.06 847 25.01 25 76.9 27 5.2 41.3
19:30 1018 30.06 848 25.04 24.7 76.4 27 4.8 40.7
19:35 1018 30.06 848 25.04 24.4 75.9 28 4.8 40.6
19:40 1018 30.06 848 25.04 24.3 75.7 28 4.7 40.5
19:45 1018 30.06 848 25.04 24.3 75.8 27 4.3 39.7
19:50 1018 30.06 848 25.04 24.2 75.6 28 4.7 40.4
19:55 1018 30.06 848 25.04 24.2 75.5 27 4.3 39.7
20:00 1019 30.09 848 25.04 24.2 75.5 27 4.3 39.8
20:05 1019 30.09 848 25.04 24.2 75.6 27 4.3 39.7
20:10 1019 30.09 848 25.04 24.3 75.8 27 4.4 40
20:15 1019 30.09 848 25.04 24.2 75.5 26 3.9 39
20:20 1019 30.09 848 25.04 24.1 75.5 27 4.3 39.8
20:25 1019 30.09 848 25.04 24 75.1 28 4.5 40
20:30 1019 30.09 848 25.04 23.7 74.7 28 4.5 40.2
20:35 1019 30.09 848 25.04 23.5 74.3 29 4.7 40.4
20:40 1019 30.09 848 25.04 23.3 73.9 29 4.6 40.3
20:45 1019 30.09 848 25.04 23.2 73.8 31 5.3 41.6
20:50 1019 30.09 848 25.04 23.1 73.5 32 5.6 42.1
20:55 1019 30.09 848 25.04 22.9 73.2 32 5.8 42.4
21:00 1019 30.09 848 25.04 22.9 73.1 34 6.3 43.3
21:05 1019 30.09 848 25.04 22.7 72.8 37 7.4 45.4
21:10 1019 30.09 848 25.04 22.4 72.3 38 7.6 45.7
21:15 1019 30.09 848 25.04 22.3 72.2 37 7.3 45.1
21:20 1019 30.09 848 25.04 22.1 71.8 43 9 48.2
21:25 1019 30.09 848 25.04 21.8 71.3 38 7.2 45
21:30 1019 30.09 848 25.04 22 71.5 40 8.1 46.5
21:35 1019 30.09 848 25.04 21.5 70.7 48 10.2 50.3
21:40 1019 30.09 848 25.04 20.9 69.6 51 10.5 50.9
21:45 1019 30.09 848 25.04 20.5 68.8 52 10.4 50.7
21:50 1019 30.09 848 25.04 20 67.9 52 10 50
21:55 1019 30.09 848 25.04 19.5 67 55 10.2 50.4
22:00 1019 30.09 848 25.04 19.2 66.5 53 9.5 49
22:05 1019 30.09 849 25.07 19 66.3 53 9.4 48.8
22:10 1019 30.09 849 25.07 18.9 66 53 9.3 48.8
22:15 1019 30.09 849 25.07 18.6 65.5 54 9.4 48.9
22:20 1020 30.12 849 25.07 18.2 64.8 56 9.4 49
22:25 1020 30.12 849 25.07 18 64.3 56 9.1 48.4
22:30 1020 30.12 849 25.07 17.9 64.1 55 8.9 48
22:35 1020 30.12 849 25.07 18 64.3 51 7.9 46.1
22:40 1020 30.12 849 25.07 18.2 64.7 52 8.4 47.1
22:45 1020 30.12 849 25.07 18.1 64.5 52 8.3 46.9
22:50 1020 30.12 849 25.07 17.8 64.1 51 7.6 45.8
22:55 1020 30.12 849 25.07 17.7 63.9 52 7.9 46.2
23:00 1020 30.12 849 25.07 17.4 63.4 53 7.8 46
23:05 1020 30.12 849 25.07 17.3 63.2 52 7.5 45.6
23:10 1020 30.12 849 25.07 17.2 63 53 7.6 45.7
23:15 1020 30.12 849 25.07 17 62.6 53 7.3 45.2
23:20 1020 30.12 849 25.07 17.2 62.9 51 7.1 44.8
23:25 1020 30.12 849 25.07 17.2 63 52 7.4 45.2
23:30 1020 30.12 849 25.07 17 62.6 52 7.2 45
23:35 1020 30.12 849 25.07 16.8 62.3 53 7.2 45
23:40 1020 30.12 849 25.07 16.8 62.2 52 7.1 44.8
23:45 1020 30.12 849 25.07 16.9 62.4 50 6.6 43.8
23:50 1020 30.12 849 25.07 16.9 62.3 52 7 44.6
23:55 1020 30.12 849 25.07 16.7 62 51 6.5 43.7
24:00 1020 30.12 849 25.07 17 62.5 48 6 42.9